Time;durP1;ratioP1;P1;durP2;ratioP2;P2;SDS_P1;SDS_P2;PMS_P1;PMS_P2;Temp;Humidity;BMP_temperature;BMP_pressure;BME280_temperature;BME280_humidity;BME280_pressure;Samples;Min_cycle;Max_cycle;Signal;HPM_P1;HPM_P2
2022/09/08 00:00:56;;;;;;;41.78;17.83;;;;;;;;;;6319268;28;20047;-57
2022/09/08 00:03:57;;;;;;;41.45;17.08;;;;;;;;;;6304963;28;20056;-58
2022/09/08 00:07:01;;;;;;;36.08;15.35;;;;;;;;;;6297736;28;20044;-58
2022/09/08 00:10:03;;;;;;;39.08;15.85;;;;;;;;;;6297191;28;20048;-58
2022/09/08 00:13:07;;;;;;;33.72;16.42;;;;;;;;;;6298240;28;20079;-57
2022/09/08 00:16:10;;;;;;;67.20;30.23;;;;;;;;;;6296806;28;20086;-57
2022/09/08 00:19:10;;;;;;;54.83;24.35;;;;;;;;;;6295087;28;20146;-58
2022/09/08 00:22:11;;;;;;;46.35;19.58;;;;;;;;;;6299192;28;20397;-57
2022/09/08 00:25:12;;;;;;;55.05;25.67;;;;;;;;;;6298487;28;20060;-58
2022/09/08 00:28:13;;;;;;;42.97;19.45;;;;;;;;;;6295941;28;20073;-59
2022/09/08 00:31:14;;;;;;;34.50;15.07;;;;;;;;;;6298105;28;20145;-57
2022/09/08 00:34:15;;;;;;;40.70;17.52;;;;;;;;;;6298650;28;20510;-59
2022/09/08 00:37:16;;;;;;;34.78;15.93;;;;;;;;;;6297553;28;20082;-59
2022/09/08 00:40:16;;;;;;;48.78;22.67;;;;;;;;;;6295709;28;20059;-58
2022/09/08 00:43:38;;;;;;;48.05;21.63;;;;;;;;;;6298867;28;20052;-58
2022/09/08 00:46:42;;;;;;;55.42;22.40;;;;;;;;;;6300535;28;20392;-58
2022/09/08 00:49:45;;;;;;;38.25;15.95;;;;;;;;;;6295207;28;20052;-58
2022/09/08 00:52:51;;;;;;;35.13;15.45;;;;;;;;;;6295919;28;20068;-58
2022/09/08 00:55:52;;;;;;;35.53;14.50;;;;;;;;;;6296892;28;20056;-58
2022/09/08 00:58:54;;;;;;;34.50;15.30;;;;;;;;;;6297506;28;20468;-58
2022/09/08 01:01:55;;;;;;;36.55;16.50;;;;;;;;;;6298087;28;20048;-58
2022/09/08 01:05:00;;;;;;;41.63;18.55;;;;;;;;;;6295597;28;20497;-58
2022/09/08 01:15:06;;;;;;;35.13;14.65;;;;;;;;;;6296691;28;20482;-59
2022/09/08 01:18:06;;;;;;;36.78;15.63;;;;;;;;;;6296730;28;20036;-58
2022/09/08 01:21:24;;;;;;;40.83;15.32;;;;;;;;;;6296017;28;20082;-58
2022/09/08 01:24:47;;;;;;;42.20;16.55;;;;;;;;;;6297500;28;20051;-59
2022/09/08 01:27:51;;;;;;;52.10;21.23;;;;;;;;;;6294257;28;20049;-58
2022/09/08 01:30:53;;;;;;;36.13;16.55;;;;;;;;;;6296582;28;20071;-59
2022/09/08 01:33:54;;;;;;;38.88;17.90;;;;;;;;;;6297962;28;20201;-58
2022/09/08 01:36:58;;;;;;;42.10;19.38;;;;;;;;;;6296388;28;20045;-58
2022/09/08 01:39:59;;;;;;;34.97;15.63;;;;;;;;;;6296979;28;20048;-59
2022/09/08 01:42:59;;;;;;;59.00;28.25;;;;;;;;;;6297414;28;20458;-58
2022/09/08 01:46:00;;;;;;;39.95;16.42;;;;;;;;;;6304233;28;20075;-57
2022/09/08 01:49:01;;;;;;;47.88;18.95;;;;;;;;;;6311700;28;20040;-59
2022/09/08 01:52:02;;;;;;;70.22;34.97;;;;;;;;;;6316238;28;20048;-59
2022/09/08 01:55:03;;;;;;;36.23;17.67;;;;;;;;;;6317205;28;20067;-58
2022/09/08 01:58:04;;;;;;;66.05;31.65;;;;;;;;;;6308682;28;20509;-59
2022/09/08 02:01:04;;;;;;;57.78;26.05;;;;;;;;;;6296423;28;20052;-58
2022/09/08 02:04:06;;;;;;;43.78;20.17;;;;;;;;;;6297219;28;20211;-52
2022/09/08 02:07:06;;;;;;;39.17;18.88;;;;;;;;;;6295826;28;20048;-58
2022/09/08 02:10:08;;;;;;;32.42;16.13;;;;;;;;;;6294073;28;20047;-59
2022/09/08 02:13:08;;;;;;;32.92;15.25;;;;;;;;;;6297111;28;20501;-58
2022/09/08 02:16:11;;;;;;;49.33;21.23;;;;;;;;;;6295579;28;20044;-58
2022/09/08 02:19:12;;;;;;;31.90;15.55;;;;;;;;;;6295287;28;20056;-58
2022/09/08 02:22:14;;;;;;;34.55;15.90;;;;;;;;;;6295644;28;20406;-57
2022/09/08 02:25:15;;;;;;;33.35;14.82;;;;;;;;;;6293141;28;20075;-58
2022/09/08 02:28:16;;;;;;;37.97;17.90;;;;;;;;;;6295999;28;20048;-58
2022/09/08 02:31:16;;;;;;;42.63;16.98;;;;;;;;;;6296078;28;20363;-58
2022/09/08 02:34:17;;;;;;;52.67;23.45;;;;;;;;;;6309665;28;20051;-58
2022/09/08 02:37:18;;;;;;;38.50;16.60;;;;;;;;;;6301741;28;20047;-59
2022/09/08 02:40:19;;;;;;;38.17;17.05;;;;;;;;;;6301392;28;20072;-59
2022/09/08 02:43:22;;;;;;;36.40;15.68;;;;;;;;;;6302466;28;20051;-59
2022/09/08 02:46:23;;;;;;;37.17;17.55;;;;;;;;;;6298876;28;20125;-58
2022/09/08 02:49:23;;;;;;;41.15;19.33;;;;;;;;;;6299429;28;20048;-57
2022/09/08 02:52:24;;;;;;;41.15;18.45;;;;;;;;;;6300813;28;20137;-58
2022/09/08 02:55:24;;;;;;;37.25;17.20;;;;;;;;;;6300788;28;20089;-59
2022/09/08 02:58:25;;;;;;;36.83;16.67;;;;;;;;;;6296868;28;20121;-58
2022/09/08 03:01:26;;;;;;;38.72;15.90;;;;;;;;;;6295623;28;20540;-58
2022/09/08 03:04:26;;;;;;;40.15;15.98;;;;;;;;;;6298867;28;20072;-58
2022/09/08 03:07:27;;;;;;;35.92;17.27;;;;;;;;;;6297193;28;20467;-58
2022/09/08 03:10:27;;;;;;;37.08;15.93;;;;;;;;;;6298210;28;20076;-56
2022/09/08 03:13:28;;;;;;;38.03;16.48;;;;;;;;;;6299324;28;20567;-58
2022/09/08 03:16:29;;;;;;;38.22;17.00;;;;;;;;;;6299241;28;20050;-59
2022/09/08 03:19:30;;;;;;;39.30;18.15;;;;;;;;;;6299376;28;20056;-58
2022/09/08 03:22:30;;;;;;;36.45;16.55;;;;;;;;;;6299008;28;20040;-58
2022/09/08 03:25:36;;;;;;;34.30;16.35;;;;;;;;;;6296859;28;20063;-58
2022/09/08 03:28:38;;;;;;;44.88;17.48;;;;;;;;;;6298153;28;20044;-58
2022/09/08 03:31:38;;;;;;;41.38;17.77;;;;;;;;;;6298547;28;20066;-56
2022/09/08 03:34:39;;;;;;;37.15;16.45;;;;;;;;;;6298741;28;20402;-58
2022/09/08 03:37:40;;;;;;;39.25;17.65;;;;;;;;;;6297110;28;20087;-58
2022/09/08 03:40:41;;;;;;;40.22;16.85;;;;;;;;;;6298961;28;20144;-58
2022/09/08 03:43:44;;;;;;;38.13;17.70;;;;;;;;;;6297516;28;20041;-58
2022/09/08 03:46:44;;;;;;;37.95;17.70;;;;;;;;;;6298533;28;20512;-59
2022/09/08 03:49:46;;;;;;;48.05;17.35;;;;;;;;;;6298483;28;20135;-58
2022/09/08 03:52:46;;;;;;;35.80;17.15;;;;;;;;;;6297303;28;20058;-57
2022/09/08 03:55:47;;;;;;;37.58;17.27;;;;;;;;;;6296621;28;20056;-59
2022/09/08 03:58:47;;;;;;;41.30;17.27;;;;;;;;;;6297366;28;20520;-58
2022/09/08 04:01:48;;;;;;;39.47;17.23;;;;;;;;;;6296243;28;20048;-58
2022/09/08 04:04:50;;;;;;;37.58;17.85;;;;;;;;;;6296610;28;20051;-58
2022/09/08 04:07:51;;;;;;;37.35;17.70;;;;;;;;;;6294398;28;20048;-58
2022/09/08 04:10:51;;;;;;;40.53;16.75;;;;;;;;;;6299692;28;20144;-58
2022/09/08 04:13:52;;;;;;;38.97;17.38;;;;;;;;;;6302192;28;20065;-58
2022/09/08 04:16:53;;;;;;;41.20;17.98;;;;;;;;;;6295602;28;20091;-58
2022/09/08 04:19:53;;;;;;;43.72;17.90;;;;;;;;;;6296501;28;20052;-59
2022/09/08 04:22:54;;;;;;;40.05;18.05;;;;;;;;;;6314872;28;20599;-58
2022/09/08 04:25:59;;;;;;;37.78;17.20;;;;;;;;;;6305353;28;20035;-59
2022/09/08 04:29:00;;;;;;;37.90;17.73;;;;;;;;;;6312695;28;20084;-60
2022/09/08 04:32:02;;;;;;;40.42;21.58;;;;;;;;;;6309009;28;20140;-59
2022/09/08 04:35:03;;;;;;;43.15;18.77;;;;;;;;;;6296472;28;20131;-59
2022/09/08 04:38:03;;;;;;;39.40;17.83;;;;;;;;;;6294421;28;20260;-58
2022/09/08 04:41:06;;;;;;;43.33;18.00;;;;;;;;;;6300955;28;20155;-58
2022/09/08 04:44:06;;;;;;;40.72;18.65;;;;;;;;;;6297681;28;20151;-58
2022/09/08 04:47:07;;;;;;;46.85;18.92;;;;;;;;;;6298141;28;20048;-58
2022/09/08 04:50:08;;;;;;;38.50;17.13;;;;;;;;;;6306340;28;20048;-58
2022/09/08 04:53:08;;;;;;;44.85;18.13;;;;;;;;;;6295999;28;20158;-58
2022/09/08 04:56:10;;;;;;;41.25;18.48;;;;;;;;;;6295082;28;20047;-58
2022/09/08 04:59:11;;;;;;;42.42;19.20;;;;;;;;;;6292466;28;20044;-58
2022/09/08 05:02:13;;;;;;;45.47;20.20;;;;;;;;;;6297139;28;20079;-58
2022/09/08 05:05:13;;;;;;;42.65;19.25;;;;;;;;;;6298881;28;20135;-58
2022/09/08 05:08:14;;;;;;;44.30;19.25;;;;;;;;;;6312182;28;20552;-58
2022/09/08 05:11:16;;;;;;;47.10;20.10;;;;;;;;;;6316880;28;20048;-59
2022/09/08 05:14:16;;;;;;;;;;;;;;;;;;6314770;28;20131;-59
2022/09/08 05:17:17;;;;;;;48.25;20.02;;;;;;;;;;6316435;28;19924;-58
2022/09/08 05:20:18;;;;;;;46.60;19.42;;;;;;;;;;6312390;28;20059;-55
2022/09/08 05:23:18;;;;;;;44.75;20.13;;;;;;;;;;6303934;28;20058;-58
2022/09/08 05:26:21;;;;;;;41.58;21.00;;;;;;;;;;6315481;28;20127;-59
2022/09/08 05:29:22;;;;;;;41.53;20.02;;;;;;;;;;6296084;28;20498;-59
2022/09/08 05:32:23;;;;;;;42.83;20.07;;;;;;;;;;6293384;28;20044;-59
2022/09/08 05:35:23;;;;;;;47.20;21.45;;;;;;;;;;6294183;28;20072;-59
2022/09/08 05:38:24;;;;;;;45.40;21.02;;;;;;;;;;6312998;28;20054;-60
2022/09/08 05:41:25;;;;;;;43.47;20.33;;;;;;;;;;6314334;28;20166;-58
2022/09/08 05:44:26;;;;;;;37.72;19.98;;;;;;;;;;6315085;28;20044;-58
2022/09/08 05:47:27;;;;;;;41.85;20.05;;;;;;;;;;6309762;28;20059;-58
2022/09/08 05:50:33;;;;;;;44.92;20.33;;;;;;;;;;6295388;28;20049;-59
2022/09/08 05:53:34;;;;;;;50.42;21.13;;;;;;;;;;6301392;28;20106;-58
2022/09/08 05:56:34;;;;;;;48.67;22.17;;;;;;;;;;6315858;28;20044;-57
2022/09/08 05:59:35;;;;;;;47.70;20.88;;;;;;;;;;6317598;28;20052;-58
2022/09/08 06:02:35;;;;;;;41.92;20.27;;;;;;;;;;6294710;28;20049;-58
2022/09/08 06:05:36;;;;;;;49.30;21.95;;;;;;;;;;6295357;28;20146;-59
2022/09/08 06:08:39;;;;;;;46.25;20.83;;;;;;;;;;6298819;28;20050;-58
2022/09/08 06:11:40;;;;;;;45.20;20.13;;;;;;;;;;6300800;28;20161;-59
2022/09/08 06:14:40;;;;;;;43.13;20.35;;;;;;;;;;6297280;28;20091;-59
2022/09/08 06:17:42;;;;;;;46.33;20.50;;;;;;;;;;6298585;28;20131;-59
2022/09/08 06:20:43;;;;;;;44.65;19.65;;;;;;;;;;6297455;28;20060;-59
2022/09/08 06:23:47;;;;;;;;;;;;;;;;;;6300445;28;20063;-59
2022/09/08 06:27:03;;;;;;;42.55;20.08;;;;;;;;;;6297660;28;19997;-59
2022/09/08 06:30:15;;;;;;;40.15;20.35;;;;;;;;;;6299703;28;20072;-59
2022/09/08 06:33:24;;;;;;;47.00;20.10;;;;;;;;;;6299035;28;20148;-59
2022/09/08 06:36:52;;;;;;;48.38;20.88;;;;;;;;;;6300376;28;20064;-59
2022/09/08 06:40:19;;;;;;;43.47;20.17;;;;;;;;;;6293797;28;20048;-59
2022/09/08 06:43:23;;;;;;;43.85;21.00;;;;;;;;;;6288438;28;20046;-59
2022/09/08 06:46:32;;;;;;;42.75;19.95;;;;;;;;;;6301086;28;20502;-59
2022/09/08 06:49:33;;;;;;;41.75;20.52;;;;;;;;;;6299155;28;20085;-59
2022/09/08 06:52:49;;;;;;;42.65;20.15;;;;;;;;;;6298814;28;20048;-59
2022/09/08 06:56:12;;;;;;;45.28;20.85;;;;;;;;;;6300146;28;20049;-59
2022/09/08 06:59:31;;;;;;;40.88;19.63;;;;;;;;;;6297900;28;20505;-59
2022/09/08 07:02:48;;;;;;;36.47;18.13;;;;;;;;;;6298919;28;20478;-59
2022/09/08 07:05:57;;;;;;;37.95;18.30;;;;;;;;;;6296085;28;20384;-59
2022/09/08 07:09:02;;;;;;;37.97;19.65;;;;;;;;;;6299776;28;20100;-59
2022/09/08 07:12:05;;;;;;;44.05;20.88;;;;;;;;;;6299030;28;20074;-59
2022/09/08 07:15:17;;;;;;;40.90;20.80;;;;;;;;;;6298076;28;20044;-59
2022/09/08 07:18:28;;;;;;;46.10;20.90;;;;;;;;;;6298991;28;20549;-59
2022/09/08 07:21:28;;;;;;;37.72;19.17;;;;;;;;;;6298125;28;20527;-59
2022/09/08 07:24:36;;;;;;;40.63;21.20;;;;;;;;;;6298405;28;20048;-59
2022/09/08 07:27:38;;;;;;;40.72;19.52;;;;;;;;;;6296196;28;20621;-59
2022/09/08 07:30:39;;;;;;;41.50;19.20;;;;;;;;;;6299860;28;20513;-57
2022/09/08 07:33:43;;;;;;;38.15;20.00;;;;;;;;;;6295173;28;20202;-59
2022/09/08 07:37:23;;;;;;;38.83;19.55;;;;;;;;;;6296476;28;20092;-60
2022/09/08 07:40:37;;;;;;;38.88;19.40;;;;;;;;;;6292993;28;20184;-58
2022/09/08 07:43:38;;;;;;;42.55;20.83;;;;;;;;;;6293857;28;20047;-58
2022/09/08 07:46:50;;;;;;;36.80;20.43;;;;;;;;;;6297277;28;20049;-59
2022/09/08 07:49:51;;;;;;;37.42;19.17;;;;;;;;;;6300259;28;20450;-59
2022/09/08 07:53:26;;;;;;;38.97;19.43;;;;;;;;;;6309120;28;20571;-58
2022/09/08 07:56:26;;;;;;;37.00;19.25;;;;;;;;;;6306318;28;20072;-58
2022/09/08 07:59:45;;;;;;;35.10;19.90;;;;;;;;;;6318899;28;20048;-59
2022/09/08 08:02:56;;;;;;;41.83;20.65;;;;;;;;;;6294481;28;20045;-57
2022/09/08 08:06:04;;;;;;;36.42;20.15;;;;;;;;;;6306834;28;20135;-55
2022/09/08 08:09:38;;;;;;;35.63;19.20;;;;;;;;;;6318471;28;20363;-55
2022/09/08 08:12:53;;;;;;;39.35;19.58;;;;;;;;;;6319064;28;20138;-48
2022/09/08 08:16:15;;;;;;;39.00;21.40;;;;;;;;;;6316722;28;22579;-57
2022/09/08 08:19:33;;;;;;;36.38;21.15;;;;;;;;;;6294013;28;20059;-58
2022/09/08 08:22:43;;;;;;;43.90;20.63;;;;;;;;;;6294240;28;20091;-58
2022/09/08 08:25:53;;;;;;;36.20;20.15;;;;;;;;;;6297352;28;20158;-58
2022/09/08 08:29:17;;;;;;;38.65;21.73;;;;;;;;;;6305838;28;20044;-59
2022/09/08 08:32:27;;;;;;;33.40;20.13;;;;;;;;;;6317662;28;20573;-59
2022/09/08 08:35:48;;;;;;;32.30;18.38;;;;;;;;;;6319561;28;20184;-59
2022/09/08 08:38:55;;;;;;;37.50;18.57;;;;;;;;;;6318362;28;20076;-59
2022/09/08 08:42:34;;;;;;;31.15;17.95;;;;;;;;;;6319035;28;20801;-58
2022/09/08 08:45:53;;;;;;;36.25;19.23;;;;;;;;;;6308279;28;20135;-59
2022/09/08 08:49:02;;;;;;;32.22;18.52;;;;;;;;;;6306845;28;20430;-57
2022/09/08 08:52:42;;;;;;;31.20;17.90;;;;;;;;;;6316651;28;20063;-58
2022/09/08 08:56:07;;;;;;;28.48;17.48;;;;;;;;;;6302234;28;20495;-57
2022/09/08 08:59:25;;;;;;;28.42;16.65;;;;;;;;;;6317978;28;20130;-58
2022/09/08 09:02:44;;;;;;;31.05;17.38;;;;;;;;;;6309153;28;20506;-58
2022/09/08 09:05:57;;;;;;;32.47;17.38;;;;;;;;;;6293817;28;20370;-58
2022/09/08 09:08:57;;;;;;;32.55;17.67;;;;;;;;;;6295218;28;20044;-58
2022/09/08 09:12:34;;;;;;;29.90;17.13;;;;;;;;;;6294363;28;20044;-59
2022/09/08 09:15:43;;;;;;;30.05;17.25;;;;;;;;;;6292496;28;20044;-58
2022/09/08 09:19:15;;;;;;;28.15;17.67;;;;;;;;;;6291469;28;20052;-58
2022/09/08 09:22:25;;;;;;;31.73;18.30;;;;;;;;;;6298325;28;20048;-59
2022/09/08 09:25:33;;;;;;;49.50;17.90;;;;;;;;;;6292170;28;20076;-57
2022/09/08 09:28:56;;;;;;;30.33;17.00;;;;;;;;;;6296357;28;20044;-58
2022/09/08 09:32:30;;;;;;;28.67;16.73;;;;;;;;;;6295307;28;20072;-58
2022/09/08 09:36:01;;;;;;;27.85;16.88;;;;;;;;;;6295740;28;20052;-59
2022/09/08 09:39:28;;;;;;;28.80;17.45;;;;;;;;;;6294904;28;20052;-59
2022/09/08 09:42:54;;;;;;;29.48;17.02;;;;;;;;;;6292858;28;21328;-58
2022/09/08 09:46:15;;;;;;;29.83;16.98;;;;;;;;;;6295779;28;20166;-58
2022/09/08 09:49:35;;;;;;;33.13;18.05;;;;;;;;;;6294506;28;20135;-60
2022/09/08 09:52:48;;;;;;;29.35;17.35;;;;;;;;;;6292227;28;20143;-60
2022/09/08 09:56:16;;;;;;;28.20;17.52;;;;;;;;;;6293188;28;20049;-60
2022/09/08 10:00:03;;;;;;;31.88;17.98;;;;;;;;;;6293092;28;20076;-58
2022/09/08 10:03:37;;;;;;;30.85;17.70;;;;;;;;;;6294818;28;20044;-59
2022/09/08 10:06:51;;;;;;;29.67;17.73;;;;;;;;;;6297556;28;20109;-59
2022/09/08 10:10:19;;;;;;;29.35;17.92;;;;;;;;;;6293867;28;20040;-60
2022/09/08 10:13:38;;;;;;;30.77;18.05;;;;;;;;;;6296094;28;20072;-59
2022/09/08 10:17:01;;;;;;;34.33;19.17;;;;;;;;;;6295748;28;20386;-58
2022/09/08 10:20:14;;;;;;;32.63;18.23;;;;;;;;;;6295390;28;20036;-59
2022/09/08 10:23:45;;;;;;;27.90;18.08;;;;;;;;;;6296559;28;20051;-58
2022/09/08 10:27:08;;;;;;;28.55;18.48;;;;;;;;;;6294697;28;20483;-59
2022/09/08 10:30:14;;;;;;;29.88;17.80;;;;;;;;;;6291699;28;20044;-59
2022/09/08 10:33:33;;;;;;;28.95;17.88;;;;;;;;;;6293736;28;20056;-57
2022/09/08 10:37:15;;;;;;;32.67;18.10;;;;;;;;;;6294921;28;20503;-59
2022/09/08 10:40:26;;;;;;;;;;;;;;;;;;6264704;28;20124;-58
2022/09/08 10:43:38;;;;;;;30.17;17.58;;;;;;;;;;6269766;28;20268;-59
2022/09/08 10:47:18;;;;;;;32.28;17.70;;;;;;;;;;6261712;28;20064;-58
2022/09/08 10:50:23;;;;;;;30.30;17.92;;;;;;;;;;6268238;28;20048;-58
2022/09/08 10:53:33;;;;;;;29.55;18.40;;;;;;;;;;6269827;28;20048;-58
2022/09/08 10:56:35;;;;;;;28.95;18.60;;;;;;;;;;6274465;28;20041;-59
2022/09/08 10:59:57;;;;;;;35.58;18.98;;;;;;;;;;6271901;28;20912;-59
2022/09/08 11:03:17;;;;;;;31.75;19.85;;;;;;;;;;6272028;28;20048;-58
2022/09/08 11:06:25;;;;;;;28.75;18.42;;;;;;;;;;6272902;28;20534;-60
2022/09/08 11:10:11;;;;;;;34.40;19.90;;;;;;;;;;6276191;28;20614;-57
2022/09/08 11:13:30;;;;;;;40.80;20.40;;;;;;;;;;6267583;28;20056;-58
2022/09/08 11:16:46;;;;;;;33.35;19.65;;;;;;;;;;6268696;28;20052;-58
2022/09/08 11:20:11;;;;;;;33.35;19.83;;;;;;;;;;6274052;28;20089;-56
2022/09/08 11:23:12;;;;;;;31.95;19.58;;;;;;;;;;6268425;28;20187;-58
2022/09/08 11:26:25;;;;;;;35.63;20.13;;;;;;;;;;6273507;28;20082;-58
2022/09/08 11:29:37;;;;;;;32.67;20.27;;;;;;;;;;6273501;28;20044;-57
2022/09/08 11:32:45;;;;;;;40.80;21.98;;;;;;;;;;6276149;28;20485;-57
2022/09/08 11:36:28;;;;;;;39.28;20.77;;;;;;;;;;6275619;28;20106;-58
2022/09/08 11:39:50;;;;;;;37.88;21.88;;;;;;;;;;6292136;28;20167;-59
2022/09/08 11:43:24;;;;;;;34.88;21.80;;;;;;;;;;6295334;28;20083;-59
2022/09/08 11:46:37;;;;;;;37.75;21.85;;;;;;;;;;6294968;28;20135;-58
2022/09/08 11:49:38;;;;;;;36.08;21.83;;;;;;;;;;6300120;28;20082;-58
2022/09/08 11:53:01;;;;;;;36.17;21.27;;;;;;;;;;6300617;28;20692;-58
2022/09/08 11:56:24;;;;;;;34.80;21.92;;;;;;;;;;6297953;28;20048;-56
2022/09/08 12:00:04;;;;;;;38.13;22.02;;;;;;;;;;6306936;28;20167;-59
2022/09/08 12:03:19;;;;;;;36.00;21.70;;;;;;;;;;6301092;28;20126;-59
2022/09/08 12:06:47;;;;;;;34.83;21.80;;;;;;;;;;6300507;28;20296;-55
2022/09/08 12:10:06;;;;;;;38.35;21.80;;;;;;;;;;6300466;28;20060;-59
2022/09/08 12:13:29;;;;;;;39.80;21.83;;;;;;;;;;6294465;28;20052;-58
2022/09/08 12:16:35;;;;;;;35.83;21.55;;;;;;;;;;6296741;28;20884;-58
2022/09/08 12:20:13;;;;;;;38.05;22.02;;;;;;;;;;6295961;28;20184;-58
2022/09/08 12:23:33;;;;;;;36.42;21.80;;;;;;;;;;6293581;28;21204;-56
2022/09/08 12:26:45;;;;;;;38.22;22.40;;;;;;;;;;6296155;28;20044;-58
2022/09/08 12:30:13;;;;;;;38.55;22.23;;;;;;;;;;6297227;28;20108;-59
2022/09/08 12:33:40;;;;;;;38.25;22.35;;;;;;;;;;6294678;28;20086;-55
2022/09/08 12:36:49;;;;;;;35.95;22.02;;;;;;;;;;6295160;28;20510;-55
2022/09/08 12:40:44;;;;;;;41.72;22.98;;;;;;;;;;6303711;28;20064;-55
2022/09/08 12:43:45;;;;;;;38.40;22.60;;;;;;;;;;6255879;28;20143;-59
2022/09/08 12:46:55;;;;;;;38.83;22.57;;;;;;;;;;6305165;28;20162;-53
2022/09/08 12:50:38;;;;;;;37.53;22.95;;;;;;;;;;6303154;28;20631;-57
2022/09/08 12:54:07;;;;;;;37.60;22.77;;;;;;;;;;6306439;28;20055;-60
2022/09/08 12:57:36;;;;;;;39.05;23.33;;;;;;;;;;6305051;28;20048;-52
2022/09/08 13:00:57;;;;;;;42.25;23.60;;;;;;;;;;6301494;28;20073;-57
2022/09/08 13:04:08;;;;;;;39.53;23.50;;;;;;;;;;6311727;28;21242;-58
2022/09/08 13:07:32;;;;;;;45.53;24.05;;;;;;;;;;6313806;28;20062;-58
2022/09/08 13:10:44;;;;;;;44.42;23.88;;;;;;;;;;6309185;28;20370;-56
2022/09/08 13:13:45;;;;;;;45.35;24.25;;;;;;;;;;6310369;28;20561;-60
2022/09/08 13:17:05;;;;;;;41.53;23.98;;;;;;;;;;6313699;28;20442;-59
2022/09/08 13:20:31;;;;;;;36.15;23.25;;;;;;;;;;6314934;28;20131;-55
2022/09/08 13:23:41;;;;;;;42.35;24.05;;;;;;;;;;6312673;28;20044;-59
2022/09/08 13:26:55;;;;;;;45.90;24.60;;;;;;;;;;6308861;28;20065;-59
2022/09/08 13:30:08;;;;;;;40.33;24.02;;;;;;;;;;6310623;28;20502;-58
2022/09/08 13:33:28;;;;;;;45.15;24.88;;;;;;;;;;6307194;28;20048;-55
2022/09/08 13:37:13;;;;;;;38.85;23.52;;;;;;;;;;6309131;28;20048;-59
2022/09/08 13:40:29;;;;;;;41.33;24.80;;;;;;;;;;6250633;28;20078;-60
2022/09/08 13:43:53;;;;;;;41.88;25.50;;;;;;;;;;6266695;28;20049;-57
2022/09/08 13:47:32;;;;;;;42.13;24.20;;;;;;;;;;6275199;28;20147;-60
2022/09/08 13:51:09;;;;;;;47.72;25.48;;;;;;;;;;6273887;28;20052;-56
2022/09/08 13:55:01;;;;;;;41.17;24.58;;;;;;;;;;6269581;28;20147;-59
2022/09/08 13:58:21;;;;;;;;;;;;;;;;;;6179231;28;20089;-59
2022/09/08 14:01:27;;;;;;;45.03;25.48;;;;;;;;;;6191478;28;19931;-57
2022/09/08 14:04:39;;;;;;;46.55;25.80;;;;;;;;;;6271793;28;20478;-57
2022/09/08 14:07:48;;;;;;;44.83;25.88;;;;;;;;;;6273558;28;20048;-59
2022/09/08 14:10:59;;;;;;;43.50;25.27;;;;;;;;;;6272862;28;20132;-59
2022/09/08 14:14:35;;;;;;;44.10;26.30;;;;;;;;;;6271529;28;20366;-59
2022/09/08 14:17:54;;;;;;;52.63;26.33;;;;;;;;;;6270664;28;20044;-59
2022/09/08 14:21:28;;;;;;;45.92;26.55;;;;;;;;;;6276099;28;20147;-55
2022/09/08 14:24:35;;;;;;;47.00;26.98;;;;;;;;;;6270195;28;20056;-58
2022/09/08 14:28:01;;;;;;;44.25;26.08;;;;;;;;;;6273616;28;20442;-53
2022/09/08 14:31:11;;;;;;;46.10;26.98;;;;;;;;;;6276870;28;20086;-54
2022/09/08 14:34:13;;;;;;;46.80;27.67;;;;;;;;;;6273841;28;20052;-59
2022/09/08 14:37:19;;;;;;;48.35;27.40;;;;;;;;;;6275683;28;20058;-57
2022/09/08 14:40:26;;;;;;;54.20;29.02;;;;;;;;;;6305988;28;20143;-58
2022/09/08 14:43:47;;;;;;;46.90;29.05;;;;;;;;;;6307149;28;20121;-57
2022/09/08 14:46:58;;;;;;;51.28;29.17;;;;;;;;;;6308515;28;20063;-56
2022/09/08 14:50:20;;;;;;;50.03;29.83;;;;;;;;;;6307948;28;20048;-57
2022/09/08 14:53:46;;;;;;;50.83;30.05;;;;;;;;;;6301806;28;20571;-55
2022/09/08 14:57:10;;;;;;;54.72;30.27;;;;;;;;;;6305310;28;20036;-57
2022/09/08 15:00:19;;;;;;;54.97;29.48;;;;;;;;;;6307180;28;20796;-55
2022/09/08 15:03:31;;;;;;;49.13;29.70;;;;;;;;;;6303126;28;20549;-52
2022/09/08 15:06:37;;;;;;;50.35;29.33;;;;;;;;;;6303885;28;20048;-54
2022/09/08 15:09:47;;;;;;;55.63;31.55;;;;;;;;;;6302892;28;20044;-56
2022/09/08 15:13:17;;;;;;;55.92;31.23;;;;;;;;;;6305446;28;20933;-56
2022/09/08 15:16:22;;;;;;;51.03;30.17;;;;;;;;;;6290571;28;20054;-56
2022/09/08 15:19:27;;;;;;;56.67;30.85;;;;;;;;;;6306568;28;20555;-53
2022/09/08 15:22:40;;;;;;;53.00;30.95;;;;;;;;;;6307667;28;20106;-54
2022/09/08 15:26:02;;;;;;;51.13;31.92;;;;;;;;;;6305815;28;20135;-59
2022/09/08 15:29:12;;;;;;;57.58;32.22;;;;;;;;;;6307941;28;20047;-56
2022/09/08 15:32:35;;;;;;;53.70;32.03;;;;;;;;;;6305853;28;20122;-59
2022/09/08 15:36:20;;;;;;;44.25;25.00;;;;;;;;;;6305810;28;20361;-58
2022/09/08 15:39:33;;;;;;;40.80;24.77;;;;;;;;;;6283871;28;20106;-59
2022/09/08 15:42:58;;;;;;;41.70;24.75;;;;;;;;;;6307090;28;20052;-56
2022/09/08 15:46:13;;;;;;;45.88;27.30;;;;;;;;;;6310070;28;20431;-58
2022/09/08 15:49:23;;;;;;;48.28;29.20;;;;;;;;;;6304821;28;20052;-61
2022/09/08 15:52:35;;;;;;;48.45;29.88;;;;;;;;;;6308053;28;20152;-57
2022/09/08 15:56:03;;;;;;;52.70;30.60;;;;;;;;;;6299246;28;20128;-58
2022/09/08 15:59:36;;;;;;;49.45;29.15;;;;;;;;;;6302461;28;20052;-57
2022/09/08 16:02:59;;;;;;;55.88;32.42;;;;;;;;;;6300201;28;20056;-58
2022/09/08 16:06:11;;;;;;;54.85;32.67;;;;;;;;;;6307736;28;20143;-58
2022/09/08 16:09:17;;;;;;;53.65;32.13;;;;;;;;;;6308620;28;20890;-59
2022/09/08 16:12:19;;;;;;;51.13;32.17;;;;;;;;;;6299655;28;20136;-59
2022/09/08 16:15:41;;;;;;;55.95;33.78;;;;;;;;;;6304777;28;20100;-59
2022/09/08 16:18:43;;;;;;;;;;;;;;;;;;6303950;28;20071;-59
2022/09/08 16:22:13;;;;;;;48.28;30.38;;;;;;;;;;6309948;28;19935;-58
2022/09/08 16:25:31;;;;;;;50.92;30.00;;;;;;;;;;6210677;28;20105;-57
2022/09/08 16:28:44;;;;;;;52.58;30.92;;;;;;;;;;6299396;28;20084;-53
2022/09/08 16:32:01;;;;;;;48.10;28.80;;;;;;;;;;6305390;28;20048;-59
2022/09/08 16:35:13;;;;;;;49.45;28.60;;;;;;;;;;6299129;28;20051;-53
2022/09/08 16:38:29;;;;;;;54.35;29.73;;;;;;;;;;6301720;28;20756;-54
2022/09/08 16:41:39;;;;;;;51.55;29.48;;;;;;;;;;6298739;28;20040;-54
2022/09/08 16:44:51;;;;;;;60.60;31.10;;;;;;;;;;6298656;28;20181;-55
2022/09/08 16:47:56;;;;;;;61.38;31.55;;;;;;;;;;6301219;28;20052;-57
2022/09/08 16:51:22;;;;;;;68.43;34.92;;;;;;;;;;6297825;28;20071;-58
2022/09/08 16:54:51;;;;;;;66.38;35.08;;;;;;;;;;6292786;28;20055;-57
2022/09/08 16:58:11;;;;;;;76.53;37.42;;;;;;;;;;6299981;28;20409;-57
2022/09/08 17:01:38;;;;;;;71.13;37.63;;;;;;;;;;6299079;28;20055;-59
2022/09/08 17:04:51;;;;;;;69.80;35.35;;;;;;;;;;6297291;28;20543;-55
2022/09/08 17:08:22;;;;;;;62.38;34.80;;;;;;;;;;6302152;28;20736;-59
2022/09/08 17:11:36;;;;;;;62.70;34.42;;;;;;;;;;6300416;28;20048;-59
2022/09/08 17:14:36;;;;;;;61.97;34.40;;;;;;;;;;6301320;28;20403;-56
2022/09/08 17:17:46;;;;;;;62.50;32.60;;;;;;;;;;6302186;28;20082;-54
2022/09/08 17:21:25;;;;;;;71.43;37.45;;;;;;;;;;6299653;28;20071;-57
2022/09/08 17:25:10;;;;;;;73.05;37.42;;;;;;;;;;6295585;28;20139;-53
2022/09/08 17:28:14;;;;;;;62.83;33.22;;;;;;;;;;6299737;28;20056;-59
2022/09/08 17:31:28;;;;;;;57.92;34.30;;;;;;;;;;6300997;28;20486;-55
2022/09/08 17:34:35;;;;;;;59.97;33.28;;;;;;;;;;6300425;28;20044;-56
2022/09/08 17:37:41;;;;;;;60.83;32.83;;;;;;;;;;6297871;28;20040;-56
2022/09/08 17:40:52;;;;;;;95.07;53.80;;;;;;;;;;6290121;28;20412;-55
2022/09/08 17:44:03;;;;;;;58.30;34.17;;;;;;;;;;6287519;28;20147;-55
2022/09/08 17:47:38;;;;;;;62.50;36.35;;;;;;;;;;6283097;28;20049;-58
2022/09/08 17:51:00;;;;;;;57.67;33.00;;;;;;;;;;6275962;28;20171;-59
2022/09/08 17:54:22;;;;;;;58.83;33.50;;;;;;;;;;6280831;28;20055;-57
2022/09/08 17:57:26;;;;;;;57.60;32.67;;;;;;;;;;6282947;28;21817;-56
2022/09/08 18:00:28;;;;;;;56.05;31.08;;;;;;;;;;6284069;28;20079;-55
2022/09/08 18:03:38;;;;;;;54.65;30.92;;;;;;;;;;6287547;28;20142;-57
2022/09/08 18:06:42;;;;;;;61.75;30.20;;;;;;;;;;6290068;28;20064;-58
2022/09/08 18:09:54;;;;;;;50.85;26.55;;;;;;;;;;6289223;28;20101;-60
2022/09/08 18:13:14;;;;;;;40.30;20.45;;;;;;;;;;6284258;28;20060;-57
2022/09/08 18:16:33;;;;;;;31.70;17.90;;;;;;;;;;6285955;28;20048;-59
2022/09/08 18:19:39;;;;;;;30.25;16.42;;;;;;;;;;6289313;28;20821;-56
2022/09/08 18:23:01;;;;;;;32.25;18.88;;;;;;;;;;6289151;28;20103;-56
2022/09/08 18:26:20;;;;;;;38.42;21.98;;;;;;;;;;6287484;28;20075;-53
2022/09/08 18:29:32;;;;;;;32.90;20.27;;;;;;;;;;6285710;28;20175;-57
2022/09/08 18:33:04;;;;;;;40.47;23.00;;;;;;;;;;6283210;28;20047;-58
2022/09/08 18:36:09;;;;;;;39.35;21.65;;;;;;;;;;6287272;28;20158;-57
2022/09/08 18:39:22;;;;;;;37.30;19.98;;;;;;;;;;6284888;28;20057;-55
2022/09/08 18:42:33;;;;;;;33.35;19.73;;;;;;;;;;6287195;28;20203;-57
2022/09/08 18:46:13;;;;;;;36.53;21.63;;;;;;;;;;6284055;28;20807;-58